createdAt,value
2023-01-17T00:00:47.815Z,94547.02
2023-01-17T00:03:23.855Z,94557.98
2023-01-17T00:06:09.276Z,94555.17
2023-01-17T00:08:49.682Z,94546.13
2023-01-17T00:11:16.481Z,94540.77
2023-01-17T00:13:46.041Z,94532.70
2023-01-17T00:16:12.583Z,94526.58
2023-01-17T00:18:39.109Z,94524.67
2023-01-17T00:21:20.908Z,94522.80
2023-01-17T00:24:01.017Z,94517.73
2023-01-17T00:26:29.756Z,94518.75
2023-01-17T00:28:56.141Z,94528.94
2023-01-17T00:31:22.596Z,94524.05
2023-01-17T00:33:49.134Z,94529.92
2023-01-17T00:36:15.535Z,94529.19
2023-01-17T00:38:42.227Z,94527.22
2023-01-17T00:41:12.851Z,94516.73
2023-01-17T00:43:52.237Z,94505.88
2023-01-17T00:46:32.439Z,94500.01
2023-01-17T00:49:12.557Z,94497.41
2023-01-17T00:51:52.761Z,94494.32
2023-01-17T00:54:32.861Z,94491.38
2023-01-17T00:57:13.088Z,94496.35
2023-01-17T00:59:53.194Z,94489.26
2023-01-17T01:02:33.729Z,94486.20
2023-01-17T01:05:13.590Z,94475.57
2023-01-17T01:07:53.747Z,94471.67
2023-01-17T01:10:33.839Z,94470.21
2023-01-17T01:13:14.053Z,94472.91
2023-01-17T01:15:54.177Z,94470.20
2023-01-17T01:18:34.362Z,94467.72
2023-01-17T01:21:14.450Z,94473.48
2023-01-17T01:23:54.709Z,94471.15
2023-01-17T01:26:34.821Z,94470.10
2023-01-17T01:29:15.016Z,94475.41
2023-01-17T01:31:55.105Z,94470.19
2023-01-17T01:34:21.842Z,94468.05
2023-01-17T01:36:48.475Z,94472.88
2023-01-17T01:39:15.235Z,94468.34
2023-01-17T01:41:41.932Z,94476.19
2023-01-17T01:44:43.023Z,94468.73
2023-01-17T01:47:26.252Z,94472.10
2023-01-17T01:49:53.100Z,94472.35
2023-01-17T01:52:23.189Z,94465.00
2023-01-17T01:54:58.563Z,94467.07
2023-01-17T01:57:30.270Z,94473.87
2023-01-17T02:00:06.980Z,94476.70
2023-01-17T02:02:38.753Z,94471.89
2023-01-17T02:05:06.114Z,94478.32
2023-01-17T02:07:40.944Z,94484.27
2023-01-17T02:10:08.939Z,94486.77
2023-01-17T02:12:35.664Z,94486.45
2023-01-17T02:15:05.493Z,94478.82
2023-01-17T02:17:53.696Z,94473.33
2023-01-17T02:20:49.884Z,94471.55
2023-01-17T02:23:46.196Z,94469.84
2023-01-17T02:26:38.669Z,94467.71
2023-01-17T02:29:32.012Z,94471.62
2023-01-17T02:32:14.315Z,94465.23
2023-01-17T02:34:51.019Z,94456.68
2023-01-17T02:37:28.739Z,94457.98
2023-01-17T02:40:12.170Z,94459.21
2023-01-17T02:42:45.432Z,94463.83
2023-01-17T02:45:19.111Z,94466.00
2023-01-17T02:47:45.986Z,94469.10
2023-01-17T02:50:17.492Z,94465.87
2023-01-17T02:53:21.156Z,94464.46
2023-01-17T02:56:04.401Z,94464.33
2023-01-17T02:59:10.627Z,94458.61
2023-01-17T03:01:57.978Z,94449.84
2023-01-17T03:04:35.088Z,94449.44
2023-01-17T03:07:07.216Z,94450.27
2023-01-17T03:09:33.798Z,94452.27
2023-01-17T03:12:00.589Z,94445.40
2023-01-17T03:14:31.126Z,94447.96
2023-01-17T03:16:57.868Z,94436.61
2023-01-17T03:19:24.401Z,94433.50
2023-01-17T03:21:50.833Z,94432.10
2023-01-17T03:24:17.372Z,94431.73
2023-01-17T03:26:44.425Z,94434.85
2023-01-17T03:29:15.784Z,94434.75
2023-01-17T03:31:42.291Z,94432.15
2023-01-17T03:34:08.772Z,94431.15
2023-01-17T03:36:35.265Z,94428.91
2023-01-17T03:39:02.250Z,94423.67
2023-01-17T03:41:29.340Z,94424.39
2023-01-17T03:43:55.855Z,94421.36
2023-01-17T03:46:25.183Z,94416.16
2023-01-17T03:48:51.832Z,94415.54
2023-01-17T03:51:18.384Z,94416.59
2023-01-17T03:53:46.428Z,94416.27
2023-01-17T03:56:14.278Z,94414.98
2023-01-17T03:58:41.535Z,94414.36
2023-01-17T04:01:08.601Z,94414.25
2023-01-17T04:03:35.290Z,94414.02
2023-01-17T04:06:01.869Z,94407.88
2023-01-17T04:08:28.691Z,94411.50
2023-01-17T04:10:55.467Z,94404.39
2023-01-17T04:13:22.166Z,94399.22
2023-01-17T04:15:50.383Z,94395.95
2023-01-17T04:18:19.018Z,94395.48
2023-01-17T04:20:47.619Z,94397.67
2023-01-17T04:23:14.193Z,94391.32
2023-01-17T04:25:40.775Z,94394.34
2023-01-17T04:28:07.393Z,94394.73
2023-01-17T04:30:33.991Z,94382.21
2023-01-17T04:33:00.662Z,94383.44
2023-01-17T04:35:29.862Z,94383.41
2023-01-17T04:37:56.408Z,94387.45
2023-01-17T04:40:23.214Z,94386.98
2023-01-17T04:42:50.609Z,94392.54
2023-01-17T04:45:17.145Z,94400.14
2023-01-17T04:47:44.072Z,94416.58
2023-01-17T04:50:11.242Z,94416.41
2023-01-17T04:52:37.848Z,94413.71
2023-01-17T04:55:05.732Z,94413.39
2023-01-17T04:57:32.422Z,94407.40
2023-01-17T04:59:59.062Z,94402.98
2023-01-17T05:02:25.904Z,94400.08
2023-01-17T05:04:52.481Z,94399.30
2023-01-17T05:07:19.089Z,94397.98
2023-01-17T05:09:46.990Z,94399.31
2023-01-17T05:12:13.519Z,94404.50
2023-01-17T05:14:40.028Z,94402.11
2023-01-17T05:17:07.212Z,94398.02
2023-01-17T05:19:34.088Z,94395.84
2023-01-17T05:22:03.241Z,94392.32
2023-01-17T05:24:31.520Z,94392.11
2023-01-17T05:27:02.262Z,94396.73
2023-01-17T05:29:29.542Z,94404.29
2023-01-17T05:31:56.470Z,94402.30
2023-01-17T05:34:23.314Z,94396.85
2023-01-17T05:36:50.228Z,94404.90
2023-01-17T05:39:17.234Z,94403.23
2023-01-17T05:41:43.963Z,94399.33
2023-01-17T05:44:10.734Z,94394.54
2023-01-17T05:46:37.586Z,94398.12
2023-01-17T05:49:04.618Z,94388.75
2023-01-17T05:51:31.143Z,94380.63
2023-01-17T05:54:13.353Z,94375.80
2023-01-17T05:57:02.540Z,94378.84
2023-01-17T06:00:01.691Z,94376.29
2023-01-17T06:02:36.353Z,94384.21
2023-01-17T06:05:41.744Z,94393.40
2023-01-17T06:09:01.734Z,94393.39
2023-01-17T06:11:56.839Z,94390.79
2023-01-17T06:14:25.095Z,94397.81
2023-01-17T06:17:29.723Z,94396.73
2023-01-17T06:20:04.907Z,94393.90
2023-01-17T06:22:57.081Z,94388.27
2023-01-17T06:25:50.799Z,94386.67
2023-01-17T06:32:39.769Z,94401.14
2023-01-17T06:35:22.721Z,94405.35
2023-01-17T06:37:57.840Z,94405.77
2023-01-17T06:40:25.834Z,94413.77
2023-01-17T06:42:52.509Z,94411.44
2023-01-17T06:45:20.005Z,94413.46
2023-01-17T06:47:46.557Z,94411.33
2023-01-17T06:50:14.945Z,94414.24
2023-01-17T06:52:42.614Z,94415.23
2023-01-17T06:55:10.197Z,94432.90
2023-01-17T06:57:46.287Z,94442.83
2023-01-17T07:00:55.305Z,94455.06
2023-01-17T07:04:18.678Z,94463.69
2023-01-17T07:07:08.091Z,94468.17
2023-01-17T07:10:32.888Z,94472.85
2023-01-17T07:16:28.874Z,94471.30
2023-01-17T07:19:35.856Z,94479.07
2023-01-17T07:22:12.745Z,94483.18
2023-01-17T07:25:20.870Z,94478.23
2023-01-17T07:27:57.034Z,94473.40
2023-01-17T07:30:26.322Z,94462.98
2023-01-17T07:33:19.372Z,94462.44
2023-01-17T07:35:55.119Z,94467.21
2023-01-17T07:38:22.071Z,94473.97
2023-01-17T07:40:56.964Z,94480.23
2023-01-17T07:43:29.642Z,94487.35
2023-01-17T07:49:43.195Z,94481.66
2023-01-17T07:52:17.415Z,94469.60
2023-01-17T07:54:57.369Z,94463.58
2023-01-17T07:59:01.101Z,94454.36
2023-01-17T08:04:55.417Z,94454.20
2023-01-17T08:28:26.441Z,94476.40
2023-01-17T08:31:39.074Z,94476.83
2023-01-17T08:37:55.587Z,94477.96
2023-01-17T08:40:49.821Z,94476.45
2023-01-17T08:43:34.853Z,94483.13
2023-01-17T08:46:02.977Z,94486.39
2023-01-17T08:53:15.697Z,94485.70
2023-01-17T09:00:10.193Z,94493.54
2023-01-17T09:21:23.950Z,94488.82
2023-01-17T09:24:06.692Z,94502.71
2023-01-17T09:30:13.306Z,94512.42
2023-01-17T09:32:44.778Z,94512.92
2023-01-17T09:35:14.989Z,94512.75
2023-01-17T09:37:43.060Z,94512.36
2023-01-17T09:40:21.000Z,94529.20
2023-01-17T09:42:58.270Z,94529.59
2023-01-17T09:45:30.129Z,94542.59
2023-01-17T09:48:08.579Z,94552.27
2023-01-17T09:51:42.319Z,94556.23
2023-01-17T09:54:24.503Z,94569.92
2023-01-17T09:57:52.150Z,94567.73
2023-01-17T10:01:15.650Z,94533.42
2023-01-17T10:04:10.872Z,94535.84
2023-01-17T10:07:02.322Z,94537.05
2023-01-17T10:09:49.481Z,94553.56
2023-01-17T10:12:51.014Z,94557.40
2023-01-17T10:15:49.439Z,94550.42
2023-01-17T10:19:01.732Z,94549.24
2023-01-17T10:21:49.798Z,94539.00
2023-01-17T10:24:41.036Z,94534.52
2023-01-17T10:27:21.089Z,94543.39
2023-01-17T10:29:51.226Z,94542.35
2023-01-17T10:32:42.662Z,94544.64
2023-01-17T10:35:20.889Z,94551.62
2023-01-17T10:37:57.266Z,94540.66
2023-01-17T10:40:50.164Z,94539.85
2023-01-17T10:43:28.297Z,94545.85
2023-01-17T10:45:58.028Z,94547.84
2023-01-17T10:48:56.682Z,94535.89
2023-01-17T10:52:00.550Z,94517.60
2023-01-17T10:54:51.565Z,94516.04
2023-01-17T10:57:25.467Z,94518.45
2023-01-17T10:59:58.921Z,94513.10
2023-01-17T11:02:33.353Z,94517.71
2023-01-17T11:05:11.415Z,94515.89
2023-01-17T11:07:40.812Z,94509.34
2023-01-17T11:10:36.565Z,94510.37
2023-01-17T11:13:20.450Z,94505.59
2023-01-17T11:15:53.223Z,94513.26
2023-01-17T11:18:22.299Z,94521.95
2023-01-17T11:20:50.674Z,94512.67
2023-01-17T11:23:24.075Z,94509.73
2023-01-17T11:25:58.081Z,94504.08
2023-01-17T11:28:30.815Z,94518.35
2023-01-17T11:31:05.094Z,94510.27
2023-01-17T11:33:48.671Z,94516.23
2023-01-17T11:36:23.407Z,94521.00
2023-01-17T11:39:04.455Z,94528.31
2023-01-17T11:41:38.573Z,94527.64
2023-01-17T11:44:22.169Z,94528.59
2023-01-17T11:47:14.926Z,94530.29
2023-01-17T11:49:45.688Z,94531.01
2023-01-17T11:52:25.188Z,94534.91
2023-01-17T11:54:55.402Z,94540.74
2023-01-17T11:57:29.176Z,94546.17
2023-01-17T12:00:19.875Z,94547.88
2023-01-17T12:03:19.374Z,94547.91
2023-01-17T12:06:01.304Z,94544.15
2023-01-17T12:08:51.598Z,94536.64
2023-01-17T12:12:09.437Z,94533.46
2023-01-17T12:14:59.871Z,94533.86
2023-01-17T12:22:04.456Z,94541.63
2023-01-17T12:25:34.545Z,94543.42
2023-01-17T12:28:43.544Z,94539.61
2023-01-17T12:31:35.161Z,94529.65
2023-01-17T12:34:31.729Z,94529.53
2023-01-17T12:37:29.329Z,94524.86
2023-01-17T12:40:05.106Z,94528.83
2023-01-17T12:42:38.565Z,94520.40
2023-01-17T12:45:13.673Z,94513.66
2023-01-17T12:47:47.225Z,94516.46
2023-01-17T12:50:26.705Z,94521.27
2023-01-17T12:53:13.311Z,94524.80
2023-01-17T12:55:53.821Z,94524.74
2023-01-17T12:58:25.690Z,94525.67
2023-01-17T13:01:03.063Z,94521.80
2023-01-17T13:03:52.866Z,94521.89
2023-01-17T13:06:30.209Z,94519.37
2023-01-17T13:09:03.698Z,94523.45
2023-01-17T13:11:46.591Z,94529.44
2023-01-17T13:14:14.593Z,94538.89
2023-01-17T13:16:50.443Z,94553.91
2023-01-17T13:19:45.209Z,94567.32
2023-01-17T13:22:18.621Z,94582.70
2023-01-17T13:25:04.835Z,94587.27
2023-01-17T13:27:58.368Z,94581.69
2023-01-17T13:30:43.388Z,94576.89
2023-01-17T13:33:47.782Z,94579.67
2023-01-17T13:36:38.493Z,94582.67
2023-01-17T13:39:30.067Z,94584.04
2023-01-17T13:42:11.905Z,94581.30
2023-01-17T13:44:39.806Z,94571.64
2023-01-17T13:47:47.618Z,94558.64
2023-01-17T13:50:28.320Z,94549.84
2023-01-17T13:52:58.290Z,94546.06
2023-01-17T13:55:46.027Z,94546.14
2023-01-17T13:58:30.326Z,94552.05
2023-01-17T14:00:58.387Z,94550.05
2023-01-17T14:03:59.535Z,94554.61
2023-01-17T14:06:41.151Z,94554.37
2023-01-17T14:09:18.718Z,94555.45
2023-01-17T14:12:04.110Z,94559.25
2023-01-17T14:14:44.475Z,94563.32
2023-01-17T14:17:35.047Z,94568.55
2023-01-17T14:20:29.391Z,94578.71
2023-01-17T14:23:02.344Z,94580.40
2023-01-17T14:25:41.106Z,94583.98
2023-01-17T14:28:24.531Z,94586.45
2023-01-17T14:30:56.483Z,94594.86
2023-01-17T14:33:34.776Z,94590.45
2023-01-17T14:36:19.574Z,94599.99
2023-01-17T14:38:48.626Z,94599.21
2023-01-17T14:41:26.429Z,94603.81
2023-01-17T14:44:01.413Z,94604.66
2023-01-17T14:46:33.029Z,94605.34
2023-01-17T14:49:07.055Z,94602.09
2023-01-17T14:51:37.437Z,94602.00
2023-01-17T14:54:22.075Z,94592.96
2023-01-17T14:56:50.275Z,94599.51
2023-01-17T14:59:22.382Z,94601.27
2023-01-17T15:02:06.599Z,94598.79
2023-01-17T15:04:39.761Z,94595.20
2023-01-17T15:07:16.782Z,94596.94
2023-01-17T15:09:47.029Z,94594.02
2023-01-17T15:12:16.000Z,94588.22
2023-01-17T15:14:46.650Z,94583.87
2023-01-17T15:17:23.494Z,94587.34
2023-01-17T15:20:18.104Z,94577.19
2023-01-17T15:22:46.680Z,94583.31
2023-01-17T15:25:19.252Z,94592.30
2023-01-17T15:34:39.380Z,94602.28
2023-01-17T15:37:29.813Z,94603.83
2023-01-17T15:40:08.022Z,94613.30
2023-01-17T15:42:40.561Z,94605.27
2023-01-17T15:45:16.326Z,94593.29
2023-01-17T15:47:46.945Z,94588.83
2023-01-17T15:50:30.426Z,94592.02
2023-01-17T15:53:03.189Z,94575.04
2023-01-17T16:00:56.793Z,94591.26
2023-01-17T16:04:19.238Z,94608.23
2023-01-17T16:14:53.529Z,94592.09
2023-01-17T16:17:34.572Z,94581.24
2023-01-17T16:20:02.911Z,94577.44
2023-01-17T16:22:35.300Z,94574.09
2023-01-17T16:25:26.521Z,94583.52
2023-01-17T16:28:08.071Z,94589.67
2023-01-17T16:30:40.733Z,94592.39
2023-01-17T16:33:12.718Z,94593.53
2023-01-17T16:35:51.277Z,94591.41
2023-01-17T16:38:20.799Z,94589.02
2023-01-17T16:40:57.761Z,94591.79
2023-01-17T16:43:26.526Z,94587.94
2023-01-17T16:45:56.485Z,94584.65
2023-01-17T16:48:25.217Z,94578.55
2023-01-17T16:50:56.065Z,94566.42
2023-01-17T16:53:26.932Z,94557.00
2023-01-17T16:55:58.448Z,94549.55
2023-01-17T16:58:27.126Z,94551.47
2023-01-17T17:01:25.266Z,94553.09
2023-01-17T17:04:06.901Z,94541.04
2023-01-17T17:06:41.435Z,94531.34
2023-01-17T17:09:12.002Z,94529.36
2023-01-17T17:12:06.942Z,94530.11
2023-01-17T17:14:42.126Z,94521.39
2023-01-17T17:17:10.618Z,94510.14
2023-01-17T17:19:39.032Z,94504.86
2023-01-17T17:22:07.211Z,94513.09
2023-01-17T17:24:38.344Z,94520.85
2023-01-17T17:27:11.630Z,94512.73
2023-01-17T17:29:54.014Z,94513.83
2023-01-17T17:32:22.752Z,94515.80
2023-01-17T17:34:51.022Z,94518.98
2023-01-17T17:37:19.207Z,94514.08
2023-01-17T17:40:13.720Z,94506.44
2023-01-17T17:42:53.296Z,94509.98
2023-01-17T17:45:22.659Z,94503.69
2023-01-17T17:48:01.151Z,94498.05
2023-01-17T17:50:29.324Z,94490.85
2023-01-17T17:53:03.765Z,94474.95
2023-01-17T17:55:41.839Z,94471.08
2023-01-17T17:58:09.764Z,94461.13
2023-01-17T18:00:53.572Z,94455.71
2023-01-17T18:03:25.513Z,94462.55
2023-01-17T18:05:53.949Z,94473.11
2023-01-17T18:08:22.788Z,94474.36
2023-01-17T18:11:00.383Z,94471.82
2023-01-17T18:13:39.140Z,94466.98
2023-01-17T18:16:12.761Z,94462.64
2023-01-17T18:18:44.197Z,94453.90
2023-01-17T18:21:23.721Z,94448.23
2023-01-17T18:23:56.689Z,94452.75
2023-01-17T18:26:28.348Z,94451.84
2023-01-17T18:28:58.365Z,94438.85
2023-01-17T18:31:27.957Z,94438.88
2023-01-17T18:33:59.124Z,94428.80
2023-01-17T18:36:31.413Z,94424.77
2023-01-17T18:39:16.815Z,94417.27
2023-01-17T18:41:45.891Z,94408.08
2023-01-17T18:44:13.885Z,94399.35
2023-01-17T18:46:43.184Z,94391.02
2023-01-17T18:49:12.675Z,94385.14
2023-01-17T18:51:41.396Z,94388.17
2023-01-17T18:54:10.453Z,94382.48
2023-01-17T18:56:38.492Z,94369.95
2023-01-17T18:59:07.005Z,94370.20
2023-01-17T19:01:36.562Z,94362.70
2023-01-17T19:04:05.705Z,94359.70
2023-01-17T19:06:37.223Z,94359.20
2023-01-17T19:09:07.480Z,94358.77
2023-01-17T19:11:36.617Z,94353.48
2023-01-17T19:14:05.877Z,94350.17
2023-01-17T19:16:39.328Z,94356.29
2023-01-17T19:19:10.742Z,94354.02
2023-01-17T19:22:20.669Z,94343.02
2023-01-17T19:25:56.226Z,94324.36
2023-01-17T19:33:37.996Z,94316.44
2023-01-17T19:36:33.979Z,94322.71
2023-01-17T19:39:57.405Z,94321.37
2023-01-17T19:43:34.329Z,94322.88
2023-01-17T19:47:04.063Z,94324.14
2023-01-17T19:50:40.647Z,94324.30
2023-01-17T19:53:49.875Z,94316.45
2023-01-17T19:57:01.419Z,94306.00
2023-01-17T20:00:46.423Z,94310.98
2023-01-17T20:04:15.782Z,94294.61
2023-01-17T20:07:46.977Z,94296.70
2023-01-17T20:11:14.366Z,94294.80
2023-01-17T20:15:05.272Z,94293.42
2023-01-17T20:18:43.047Z,94290.08
2023-01-17T20:22:11.565Z,94286.46
2023-01-17T20:30:20.117Z,94282.04
2023-01-17T20:33:54.993Z,94278.55
2023-01-17T20:37:52.789Z,94272.33
2023-01-17T20:41:20.974Z,94268.20
2023-01-17T20:44:59.977Z,94263.85
2023-01-17T20:48:10.137Z,94253.71
2023-01-17T20:51:33.054Z,94249.60
2023-01-17T20:54:55.035Z,94234.15
2023-01-17T20:58:34.001Z,94238.08
2023-01-17T21:02:05.198Z,94224.74
2023-01-17T21:05:40.226Z,94213.50
2023-01-17T21:09:05.958Z,94214.23
2023-01-17T21:12:54.626Z,94220.33
2023-01-17T21:16:38.088Z,94211.20
2023-01-17T21:20:30.068Z,94197.36
2023-01-17T21:24:21.109Z,94207.26
2023-01-17T21:28:04.924Z,94205.02
2023-01-17T21:31:36.054Z,94207.75
2023-01-17T21:35:12.388Z,94195.08
2023-01-17T21:38:43.175Z,94183.77
2023-01-17T21:41:44.860Z,94176.48
2023-01-17T21:45:41.639Z,94172.73
2023-01-17T21:49:09.754Z,94180.16
2023-01-17T21:52:20.278Z,94180.52
2023-01-17T21:55:49.047Z,94178.09
2023-01-17T21:58:57.945Z,94185.45
2023-01-17T22:01:52.874Z,94185.36
2023-01-17T22:05:13.003Z,94183.68
2023-01-17T22:08:58.893Z,94175.24
2023-01-17T22:12:29.532Z,94164.02
2023-01-17T22:15:57.686Z,94152.02
2023-01-17T22:19:00.690Z,94150.89
2023-01-17T22:22:22.528Z,94147.12
2023-01-17T22:25:00.549Z,94155.91
2023-01-17T22:27:52.120Z,94156.94
2023-01-17T22:31:01.870Z,94150.02
2023-01-17T22:34:24.085Z,94156.88
2023-01-17T22:37:29.386Z,94158.59
2023-01-17T22:40:43.510Z,94153.98
2023-01-17T22:44:17.832Z,94154.17
2023-01-17T22:47:32.473Z,94148.09
2023-01-17T22:50:24.020Z,94140.27
2023-01-17T22:53:22.525Z,94144.52
2023-01-17T22:56:31.559Z,94145.89
2023-01-17T22:59:14.025Z,94147.45
2023-01-17T23:02:42.918Z,94148.68
2023-01-17T23:05:47.589Z,94157.34
2023-01-17T23:08:39.196Z,94152.31
2023-01-17T23:11:49.990Z,94158.31
2023-01-17T23:15:35.844Z,94150.76
2023-01-17T23:18:36.131Z,94142.13
2023-01-17T23:21:44.973Z,94137.41
2023-01-17T23:24:55.875Z,94137.12
2023-01-17T23:27:56.728Z,94126.30
2023-01-17T23:30:54.763Z,94127.60
2023-01-17T23:33:23.796Z,94129.70
2023-01-17T23:36:04.378Z,94127.33
2023-01-17T23:38:47.132Z,94130.58
2023-01-17T23:42:07.871Z,94132.09
2023-01-17T23:44:46.412Z,94130.48
2023-01-17T23:48:02.394Z,94132.10
2023-01-17T23:50:55.379Z,94132.11
2023-01-17T23:54:18.705Z,94128.16
2023-01-17T23:57:29.920Z,94126.65
